createdAt,value
2019-01-30T00:00:43.320Z,13.85
2019-01-30T00:03:48.354Z,13.25
2019-01-30T00:06:53.482Z,14.35
2019-01-30T00:09:58.634Z,15.05
2019-01-30T00:13:03.811Z,14.35
2019-01-30T00:16:09.648Z,14.35
2019-01-30T00:19:14.854Z,14.45
2019-01-30T00:22:19.958Z,15.03
2019-01-30T00:25:24.981Z,16.10
2019-01-30T00:28:30.111Z,14.43
2019-01-30T00:31:35.203Z,14.20
2019-01-30T00:34:40.310Z,14.00
2019-01-30T00:37:47.025Z,15.32
2019-01-30T00:40:52.218Z,16.12
2019-01-30T00:43:57.161Z,14.85
2019-01-30T00:47:02.187Z,14.30
2019-01-30T00:50:08.495Z,13.48
2019-01-30T00:53:13.608Z,14.03
2019-01-30T00:56:18.635Z,15.35
2019-01-30T00:59:23.742Z,15.30
2019-01-30T01:02:28.861Z,13.93
2019-01-30T01:05:33.959Z,14.53
2019-01-30T01:08:39.065Z,14.93
2019-01-30T01:11:44.169Z,15.95
2019-01-30T01:14:49.339Z,14.10
2019-01-30T01:17:54.374Z,14.35
2019-01-30T01:20:59.465Z,14.90
2019-01-30T01:24:04.578Z,15.32
2019-01-30T01:27:09.619Z,15.45
2019-01-30T01:30:24.972Z,13.95
2019-01-30T01:33:25.855Z,14.25
2019-01-30T01:36:30.823Z,14.95
2019-01-30T01:39:35.776Z,14.23
2019-01-30T01:42:40.823Z,13.83
2019-01-30T01:45:45.945Z,14.65
2019-01-30T01:48:50.990Z,14.40
2019-01-30T01:51:56.098Z,15.18
2019-01-30T01:55:01.152Z,12.90
2019-01-30T01:58:06.271Z,13.65
2019-01-30T02:01:11.386Z,12.85
2019-01-30T02:04:16.479Z,14.98
2019-01-30T02:07:21.540Z,12.05
2019-01-30T02:10:26.900Z,13.72
2019-01-30T02:13:31.980Z,12.35
2019-01-30T02:16:37.099Z,14.63
2019-01-30T02:19:42.164Z,12.80
2019-01-30T02:22:47.275Z,12.37
2019-01-30T02:25:52.397Z,13.43
2019-01-30T02:28:57.448Z,13.40
2019-01-30T02:32:02.558Z,12.35
2019-01-30T02:35:07.724Z,12.73
2019-01-30T02:38:12.780Z,11.97
2019-01-30T02:41:17.895Z,11.30
2019-01-30T02:44:23.256Z,12.85
2019-01-30T02:47:28.374Z,13.20
2019-01-30T02:50:35.052Z,14.23
2019-01-30T02:53:40.428Z,12.58
2019-01-30T02:56:45.569Z,12.82
2019-01-30T02:59:50.631Z,12.15
2019-01-30T03:02:55.837Z,13.80
2019-01-30T03:06:00.964Z,13.20
2019-01-30T03:09:07.848Z,13.13
2019-01-30T03:12:12.974Z,11.90
2019-01-30T03:15:18.206Z,13.03
2019-01-30T03:18:23.390Z,13.38
2019-01-30T03:21:28.518Z,13.50
2019-01-30T03:24:33.657Z,12.70
2019-01-30T03:27:38.756Z,12.20
2019-01-30T03:30:43.875Z,12.37
2019-01-30T03:33:48.926Z,13.22
2019-01-30T03:36:54.044Z,13.55
2019-01-30T03:39:59.152Z,12.30
2019-01-30T03:43:04.389Z,12.88
2019-01-30T03:46:09.504Z,12.70
2019-01-30T03:49:14.627Z,13.15
2019-01-30T03:52:19.828Z,11.95
2019-01-30T03:55:24.870Z,11.95
2019-01-30T03:58:30.079Z,12.00
2019-01-30T04:01:35.195Z,11.25
2019-01-30T04:04:40.314Z,10.53
2019-01-30T04:07:45.508Z,11.70
2019-01-30T04:10:50.648Z,11.55
2019-01-30T04:13:55.760Z,11.25
2019-01-30T04:17:00.893Z,10.70
2019-01-30T04:20:07.604Z,11.78
2019-01-30T04:23:12.637Z,11.90
2019-01-30T04:26:17.755Z,11.53
2019-01-30T04:29:24.692Z,11.05
2019-01-30T04:32:29.815Z,10.93
2019-01-30T04:35:34.860Z,11.08
2019-01-30T04:38:39.891Z,10.32
2019-01-30T04:41:45.051Z,9.50
2019-01-30T04:44:50.172Z,10.05
2019-01-30T04:47:55.283Z,10.50
2019-01-30T04:51:00.416Z,8.95
2019-01-30T04:54:05.687Z,9.23
2019-01-30T04:57:10.819Z,9.00
2019-01-30T05:00:18.863Z,9.58
2019-01-30T05:03:24.782Z,9.35
2019-01-30T05:06:29.943Z,17.70
2019-01-30T05:09:34.980Z,10.55
2019-01-30T05:12:40.157Z,9.68
2019-01-30T05:15:45.271Z,10.70
2019-01-30T05:18:50.307Z,9.28
2019-01-30T05:21:57.547Z,10.20
2019-01-30T05:25:02.656Z,9.88
2019-01-30T05:28:07.776Z,9.83
2019-01-30T05:31:12.890Z,10.55
2019-01-30T05:34:18.019Z,10.70
2019-01-30T05:37:23.163Z,10.10
2019-01-30T05:40:28.297Z,9.85
2019-01-30T05:43:33.416Z,10.38
2019-01-30T05:46:38.550Z,10.05
2019-01-30T05:49:43.607Z,9.63
2019-01-30T05:52:48.640Z,10.75
2019-01-30T05:55:53.790Z,9.48
2019-01-30T05:58:58.890Z,9.53
2019-01-30T06:02:11.958Z,11.15
2019-01-30T06:05:12.356Z,11.12
2019-01-30T06:08:17.508Z,10.82
2019-01-30T06:11:22.642Z,9.80
2019-01-30T06:14:27.760Z,10.23
2019-01-30T06:17:32.893Z,10.75
2019-01-30T06:20:37.940Z,9.28
2019-01-30T06:23:43.083Z,9.70
2019-01-30T06:26:48.191Z,8.78
2019-01-30T06:29:53.234Z,8.80
2019-01-30T06:32:58.423Z,8.35
2019-01-30T06:36:03.569Z,9.40
2019-01-30T06:39:08.831Z,7.83
2019-01-30T06:42:13.882Z,7.65
2019-01-30T06:45:19.220Z,8.88
2019-01-30T06:48:24.371Z,8.28
2019-01-30T06:51:29.578Z,8.55
2019-01-30T06:54:34.687Z,8.78
2019-01-30T06:57:39.840Z,9.33
2019-01-30T07:00:44.820Z,9.18
2019-01-30T07:03:49.874Z,8.28
2019-01-30T07:06:54.916Z,11.30
2019-01-30T07:10:00.035Z,9.98
2019-01-30T07:13:05.175Z,9.45
2019-01-30T07:16:10.297Z,8.35
2019-01-30T07:19:15.280Z,9.38
2019-01-30T07:22:20.335Z,8.88
2019-01-30T07:25:25.457Z,8.23
2019-01-30T07:28:30.519Z,11.53
2019-01-30T07:31:35.661Z,7.78
2019-01-30T07:34:40.723Z,8.33
2019-01-30T07:37:48.763Z,9.00
2019-01-30T07:40:53.920Z,8.33
2019-01-30T07:43:59.055Z,8.73
2019-01-30T07:47:04.091Z,7.35
2019-01-30T07:50:10.161Z,8.65
2019-01-30T07:53:15.247Z,7.95
2019-01-30T07:56:20.383Z,7.97
2019-01-30T07:59:25.503Z,8.60
2019-01-30T08:02:30.713Z,9.70
2019-01-30T08:05:35.833Z,8.38
2019-01-30T08:08:40.810Z,8.38
2019-01-30T08:11:45.924Z,7.95
2019-01-30T08:14:51.035Z,8.15
2019-01-30T08:17:56.091Z,8.43
2019-01-30T08:21:01.205Z,8.75
2019-01-30T08:24:06.828Z,9.13
2019-01-30T08:27:12.106Z,8.90
2019-01-30T08:30:23.565Z,9.80
2019-01-30T08:33:28.707Z,9.53
2019-01-30T08:36:33.820Z,8.53
2019-01-30T08:39:38.968Z,9.53
2019-01-30T08:42:44.112Z,9.58
2019-01-30T08:45:49.222Z,8.77
2019-01-30T08:48:54.261Z,8.70
2019-01-30T08:51:59.312Z,9.87
2019-01-30T08:55:04.876Z,9.37
2019-01-30T08:58:10.157Z,10.17
2019-01-30T09:01:15.328Z,8.37
2019-01-30T09:04:20.375Z,9.60
2019-01-30T09:07:25.419Z,9.17
2019-01-30T09:10:30.655Z,9.23
2019-01-30T09:13:35.724Z,8.87
2019-01-30T09:16:40.880Z,8.87
2019-01-30T09:19:45.930Z,8.37
2019-01-30T09:22:51.077Z,15.33
2019-01-30T09:25:56.184Z,10.60
2019-01-30T09:29:01.236Z,8.80
2019-01-30T09:32:06.343Z,9.13
2019-01-30T09:35:11.687Z,8.40
2019-01-30T09:38:16.771Z,7.90
2019-01-30T09:41:21.822Z,8.57
2019-01-30T09:44:26.949Z,7.83
2019-01-30T09:47:32.047Z,9.57
2019-01-30T09:50:37.163Z,8.90
2019-01-30T09:53:42.300Z,8.17
2019-01-30T09:56:47.430Z,8.30
2019-01-30T09:59:52.545Z,9.30
2019-01-30T10:02:57.672Z,8.93
2019-01-30T10:06:02.800Z,8.63
2019-01-30T10:09:09.559Z,8.97
2019-01-30T10:12:14.743Z,8.70
2019-01-30T10:15:21.272Z,8.07
2019-01-30T10:18:26.388Z,9.63
2019-01-30T10:21:31.507Z,9.43
2019-01-30T10:24:36.614Z,8.90
2019-01-30T10:27:41.756Z,10.00
2019-01-30T10:30:47.229Z,12.20
2019-01-30T10:33:52.360Z,9.93
2019-01-30T10:36:57.476Z,8.93
2019-01-30T10:40:02.607Z,9.57
2019-01-30T10:43:07.922Z,9.90
2019-01-30T10:46:13.039Z,8.93
2019-01-30T10:49:18.176Z,8.77
2019-01-30T10:52:23.388Z,9.23
2019-01-30T10:55:30.119Z,9.57
2019-01-30T10:58:35.258Z,10.23
2019-01-30T11:01:40.376Z,10.27
2019-01-30T11:04:45.508Z,8.93
2019-01-30T11:07:50.637Z,10.57
2019-01-30T11:10:55.765Z,10.27
2019-01-30T11:14:00.811Z,8.83
2019-01-30T11:17:08.536Z,9.10
2019-01-30T11:20:14.533Z,11.30
2019-01-30T11:23:19.582Z,10.07
2019-01-30T11:26:24.687Z,9.80
2019-01-30T11:29:30.113Z,10.40
2019-01-30T11:32:35.231Z,10.90
2019-01-30T11:35:40.352Z,10.50
2019-01-30T11:38:45.379Z,9.90
2019-01-30T11:41:50.520Z,9.83
2019-01-30T11:44:55.648Z,9.37
2019-01-30T11:48:00.762Z,9.07
2019-01-30T11:51:05.885Z,8.27
2019-01-30T11:54:11.103Z,9.17
2019-01-30T11:57:16.299Z,8.43
2019-01-30T12:00:50.691Z,10.23
2019-01-30T12:03:55.807Z,8.23
2019-01-30T12:07:00.977Z,8.90
2019-01-30T12:10:06.184Z,8.80
2019-01-30T12:13:11.311Z,9.27
2019-01-30T12:16:16.656Z,8.27
2019-01-30T12:19:21.840Z,9.60
2019-01-30T12:22:26.979Z,9.17
2019-01-30T12:25:32.092Z,8.80
2019-01-30T12:28:37.218Z,8.47
2019-01-30T12:31:42.332Z,7.67
2019-01-30T12:34:47.393Z,9.37
2019-01-30T12:37:52.716Z,8.47
2019-01-30T12:40:57.828Z,8.10
2019-01-30T12:44:02.880Z,9.13
2019-01-30T12:47:07.996Z,9.13
2019-01-30T12:50:13.120Z,9.67
2019-01-30T12:53:18.227Z,8.13
2019-01-30T12:56:23.359Z,8.50
2019-01-30T12:59:28.484Z,8.73
2019-01-30T13:02:33.639Z,8.30
2019-01-30T13:05:38.768Z,8.93
2019-01-30T13:08:43.864Z,7.77
2019-01-30T13:11:48.980Z,9.33
2019-01-30T13:14:53.932Z,9.20
2019-01-30T13:17:59.110Z,8.83
2019-01-30T13:21:04.211Z,8.20
2019-01-30T13:24:09.268Z,10.30
2019-01-30T13:27:14.397Z,9.10
2019-01-30T13:30:22.062Z,9.03
2019-01-30T13:33:27.180Z,9.07
2019-01-30T13:36:32.345Z,8.33
2019-01-30T13:39:37.367Z,8.30
2019-01-30T13:42:42.540Z,8.13
2019-01-30T13:45:47.684Z,7.73
2019-01-30T13:48:52.814Z,9.00
2019-01-30T13:51:57.933Z,8.07
2019-01-30T13:55:03.057Z,6.90
2019-01-30T13:58:09.176Z,7.07
2019-01-30T14:01:17.701Z,7.10
2019-01-30T14:04:21.187Z,5.90
2019-01-30T14:07:26.367Z,6.70
2019-01-30T14:10:31.780Z,5.70
2019-01-30T14:13:36.864Z,5.00
2019-01-30T14:16:42.039Z,5.30
2019-01-30T14:19:47.123Z,6.03
2019-01-30T14:22:52.169Z,5.90
2019-01-30T14:25:57.265Z,7.90
2019-01-30T14:29:02.544Z,7.27
2019-01-30T14:32:07.747Z,6.03
2019-01-30T14:35:12.928Z,8.77
2019-01-30T14:38:18.083Z,7.03
2019-01-30T14:41:23.228Z,10.60
2019-01-30T14:44:28.279Z,7.40
2019-01-30T14:47:33.380Z,8.57
2019-01-30T14:50:38.500Z,6.97
2019-01-30T14:53:43.595Z,6.50
2019-01-30T14:56:48.848Z,7.20
2019-01-30T14:59:53.923Z,6.13
2019-01-30T15:02:59.173Z,6.97
2019-01-30T15:06:04.352Z,6.03
2019-01-30T15:09:10.300Z,6.90
2019-01-30T15:12:15.620Z,6.57
2019-01-30T15:15:22.843Z,6.57
2019-01-30T15:18:28.102Z,6.30
2019-01-30T15:21:33.268Z,5.70
2019-01-30T15:24:38.363Z,6.00
2019-01-30T15:27:43.480Z,6.90
2019-01-30T15:30:48.956Z,6.77
2019-01-30T15:33:54.089Z,6.27
2019-01-30T15:36:59.251Z,8.03
2019-01-30T15:40:05.361Z,9.13
2019-01-30T15:43:10.485Z,7.77
2019-01-30T15:46:15.613Z,7.03
2019-01-30T15:49:20.899Z,5.90
2019-01-30T15:52:26.143Z,6.70
2019-01-30T15:55:31.995Z,5.80
2019-01-30T15:58:37.340Z,6.20
2019-01-30T16:01:44.832Z,5.40
2019-01-30T16:04:52.119Z,4.70
2019-01-30T16:07:57.295Z,5.80
2019-01-30T16:11:02.486Z,5.50
2019-01-30T16:14:07.696Z,4.50
2019-01-30T16:17:12.884Z,3.90
2019-01-30T16:20:18.219Z,6.10
2019-01-30T16:23:23.439Z,5.90
2019-01-30T16:26:28.567Z,6.93
2019-01-30T16:29:33.591Z,6.77
2019-01-30T16:32:38.835Z,6.63
2019-01-30T16:35:55.359Z,6.23
2019-01-30T16:38:51.447Z,5.83
2019-01-30T16:41:56.551Z,5.50
2019-01-30T16:45:02.886Z,6.77
2019-01-30T16:48:08.647Z,5.90
2019-01-30T16:51:13.801Z,4.60
2019-01-30T16:54:18.870Z,6.30
2019-01-30T16:57:23.973Z,6.03
2019-01-30T17:00:31.226Z,3.83
2019-01-30T17:03:36.460Z,3.07
2019-01-30T17:06:43.797Z,2.70
2019-01-30T17:09:48.507Z,1.97
2019-01-30T17:12:53.827Z,2.33
2019-01-30T17:15:59.014Z,2.33
2019-01-30T17:19:04.375Z,2.83
2019-01-30T17:22:09.508Z,2.03
2019-01-30T17:25:15.140Z,1.40
2019-01-30T17:28:20.263Z,1.83
2019-01-30T17:31:28.664Z,1.70
2019-01-30T17:34:33.799Z,2.27
2019-01-30T17:37:38.999Z,2.30
2019-01-30T17:40:44.848Z,1.70
2019-01-30T17:43:50.026Z,1.30
2019-01-30T17:46:55.242Z,1.07
2019-01-30T17:50:00.378Z,1.40
2019-01-30T17:53:05.578Z,1.13
2019-01-30T17:56:10.684Z,2.03
2019-01-30T17:59:15.888Z,1.07
2019-01-30T18:02:21.571Z,1.57
2019-01-30T18:05:26.686Z,1.30
2019-01-30T18:08:31.935Z,2.00
2019-01-30T18:11:37.133Z,1.73
2019-01-30T18:14:42.180Z,1.30
2019-01-30T18:17:47.283Z,1.30
2019-01-30T18:20:52.487Z,1.83
2019-01-30T18:23:57.673Z,1.60
2019-01-30T18:27:02.871Z,1.43
2019-01-30T18:30:11.060Z,1.77
2019-01-30T18:33:16.277Z,2.30
2019-01-30T18:36:24.286Z,1.60
2019-01-30T18:39:29.407Z,1.37
2019-01-30T18:42:34.551Z,2.17
2019-01-30T18:45:39.697Z,1.70
2019-01-30T18:48:45.284Z,1.70
2019-01-30T18:51:50.422Z,1.83
2019-01-30T18:54:55.479Z,1.73
2019-01-30T18:58:00.592Z,1.80
2019-01-30T19:01:06.915Z,1.80
2019-01-30T19:04:12.066Z,2.43
2019-01-30T19:07:17.204Z,2.30
2019-01-30T19:10:22.383Z,2.67
2019-01-30T19:13:27.492Z,2.50
2019-01-30T19:16:32.629Z,2.30
2019-01-30T19:19:37.672Z,3.37
2019-01-30T19:22:42.865Z,2.50
2019-01-30T19:25:48.025Z,3.50
2019-01-30T19:28:53.115Z,2.97
2019-01-30T19:31:58.280Z,2.20
2019-01-30T19:35:03.394Z,2.63
2019-01-30T19:38:09.025Z,2.50
2019-01-30T19:41:14.127Z,3.00
2019-01-30T19:44:19.191Z,2.77
2019-01-30T19:47:24.359Z,2.80
2019-01-30T19:50:30.330Z,3.17
2019-01-30T19:53:35.446Z,3.33
2019-01-30T19:56:40.656Z,4.40
2019-01-30T19:59:45.762Z,3.30
2019-01-30T20:02:51.177Z,3.40
2019-01-30T20:05:56.316Z,2.20
2019-01-30T20:09:01.441Z,2.20
2019-01-30T20:12:06.567Z,2.17
2019-01-30T20:15:11.705Z,2.50
2019-01-30T20:18:16.819Z,2.43
2019-01-30T20:21:21.991Z,2.00
2019-01-30T20:24:27.129Z,2.20
2019-01-30T20:27:32.484Z,2.20
2019-01-30T20:30:38.096Z,2.70
2019-01-30T20:33:43.716Z,2.27
2019-01-30T20:36:49.168Z,2.60
2019-01-30T20:39:54.476Z,3.03
2019-01-30T20:43:00.247Z,2.03
2019-01-30T20:46:05.740Z,2.30
2019-01-30T20:49:10.958Z,2.20
2019-01-30T20:52:16.483Z,2.43
2019-01-30T20:55:22.148Z,2.03
2019-01-30T20:58:27.257Z,2.63
2019-01-30T21:01:32.756Z,2.40
2019-01-30T21:04:37.969Z,2.37
2019-01-30T21:07:43.012Z,2.20
2019-01-30T21:10:48.364Z,2.67
2019-01-30T21:13:53.839Z,2.43
2019-01-30T21:16:59.265Z,2.53
2019-01-30T21:20:05.759Z,2.60
2019-01-30T21:23:10.885Z,2.87
2019-01-30T21:26:15.872Z,6.27
2019-01-30T21:29:21.203Z,6.87
2019-01-30T21:32:26.318Z,3.50
2019-01-30T21:35:31.906Z,3.53
2019-01-30T21:38:37.485Z,2.97
2019-01-30T21:41:43.122Z,2.57
2019-01-30T21:44:48.419Z,3.00
2019-01-30T21:47:53.710Z,3.27
2019-01-30T21:50:59.519Z,2.40
2019-01-30T21:54:04.668Z,3.77
2019-01-30T21:57:09.796Z,3.80
2019-01-30T22:00:26.252Z,3.03
2019-01-30T22:03:31.627Z,2.80
2019-01-30T22:06:36.751Z,4.50
2019-01-30T22:09:42.198Z,3.30
2019-01-30T22:12:47.503Z,3.00
2019-01-30T22:15:52.892Z,3.50
2019-01-30T22:18:58.489Z,2.40
2019-01-30T22:22:03.729Z,3.03
2019-01-30T22:25:19.990Z,3.20
2019-01-30T22:28:17.284Z,2.60
2019-01-30T22:31:22.631Z,2.97
2019-01-30T22:34:28.183Z,3.30
2019-01-30T22:37:33.472Z,2.80
2019-01-30T22:40:38.589Z,3.00
2019-01-30T22:43:43.550Z,5.27
2019-01-30T22:46:48.655Z,5.10
2019-01-30T22:49:53.641Z,4.50
2019-01-30T22:52:58.743Z,3.50
2019-01-30T22:56:04.192Z,2.80
2019-01-30T22:59:09.316Z,3.67
2019-01-30T23:02:14.827Z,2.93
2019-01-30T23:05:31.895Z,2.90
2019-01-30T23:08:49.803Z,2.63
2019-01-30T23:12:16.575Z,3.40
2019-01-30T23:15:29.670Z,2.30
2019-01-30T23:18:58.648Z,2.93
2019-01-30T23:22:41.440Z,2.23
2019-01-30T23:26:14.487Z,2.70
2019-01-30T23:30:18.493Z,2.30
2019-01-30T23:33:42.165Z,2.33
2019-01-30T23:37:13.740Z,2.70
2019-01-30T23:40:51.366Z,2.33
2019-01-30T23:44:05.045Z,2.40
2019-01-30T23:48:09.231Z,2.50
2019-01-30T23:51:38.811Z,2.10
2019-01-30T23:55:02.891Z,2.70
2019-01-30T23:58:36.404Z,2.33
